createdAt,value
2022-11-19T00:01:13.080Z,10.83
2022-11-19T00:03:41.465Z,9.03
2022-11-19T00:06:11.044Z,9.00
2022-11-19T00:08:39.051Z,10.77
2022-11-19T00:11:09.673Z,7.47
2022-11-19T00:13:36.606Z,10.03
2022-11-19T00:16:07.976Z,12.27
2022-11-19T00:18:35.520Z,11.67
2022-11-19T00:21:03.962Z,10.77
2022-11-19T00:23:32.775Z,11.30
2022-11-19T00:26:04.934Z,10.83
2022-11-19T00:28:32.477Z,13.13
2022-11-19T00:31:05.347Z,11.23
2022-11-19T00:33:32.893Z,11.33
2022-11-19T00:36:00.992Z,10.00
2022-11-19T00:38:28.977Z,11.27
2022-11-19T00:40:57.875Z,12.30
2022-11-19T00:43:42.885Z,9.77
2022-11-19T00:46:10.690Z,13.53
2022-11-19T00:48:39.149Z,11.30
2022-11-19T00:51:07.172Z,11.80
2022-11-19T00:53:34.787Z,14.43
2022-11-19T00:56:03.890Z,12.20
2022-11-19T00:58:31.339Z,12.73
2022-11-19T01:00:58.898Z,10.47
2022-11-19T01:03:26.429Z,11.67
2022-11-19T01:05:54.145Z,10.53
2022-11-19T01:08:21.917Z,9.73
2022-11-19T01:10:49.405Z,10.37
2022-11-19T01:13:36.373Z,11.70
2022-11-19T01:16:05.460Z,11.13
2022-11-19T01:18:33.391Z,11.90
2022-11-19T01:21:01.045Z,10.93
2022-11-19T01:23:28.908Z,10.00
2022-11-19T01:25:56.450Z,8.30
2022-11-19T01:28:25.249Z,12.00
2022-11-19T01:30:53.063Z,12.10
2022-11-19T01:33:22.474Z,12.20
2022-11-19T01:35:59.672Z,10.87
2022-11-19T01:38:27.492Z,10.80
2022-11-19T01:40:55.624Z,11.73
2022-11-19T01:43:41.376Z,9.97
2022-11-19T01:46:09.220Z,11.03
2022-11-19T01:48:38.337Z,11.87
2022-11-19T01:51:09.152Z,12.03
2022-11-19T01:53:37.228Z,9.20
2022-11-19T01:56:06.362Z,13.00
2022-11-19T01:58:36.563Z,11.37
2022-11-19T02:01:05.758Z,10.63
2022-11-19T02:03:33.807Z,11.20
2022-11-19T02:06:02.441Z,9.17
2022-11-19T02:08:34.911Z,11.30
2022-11-19T02:11:07.655Z,11.63
2022-11-19T02:13:37.906Z,11.30
2022-11-19T02:16:09.653Z,10.10
2022-11-19T02:18:41.037Z,11.57
2022-11-19T02:21:13.409Z,9.77
2022-11-19T02:23:53.085Z,8.80
2022-11-19T02:26:34.854Z,9.47
2022-11-19T02:29:07.280Z,9.90
2022-11-19T02:31:38.647Z,7.97
2022-11-19T02:34:09.886Z,7.97
2022-11-19T02:36:40.153Z,9.93
2022-11-19T02:39:09.770Z,11.37
2022-11-19T02:41:39.443Z,10.40
2022-11-19T02:44:29.376Z,10.47
2022-11-19T02:46:58.727Z,8.03
2022-11-19T02:49:28.606Z,8.57
2022-11-19T02:51:56.686Z,10.30
2022-11-19T02:54:52.238Z,8.60
2022-11-19T02:57:19.716Z,7.90
2022-11-19T03:00:06.948Z,8.17
2022-11-19T03:02:55.380Z,9.67
2022-11-19T03:05:24.758Z,9.40
2022-11-19T03:07:52.228Z,8.93
2022-11-19T03:10:21.084Z,10.20
2022-11-19T03:12:50.887Z,9.47
2022-11-19T03:15:41.639Z,8.90
2022-11-19T03:18:13.335Z,8.60
2022-11-19T03:20:42.182Z,11.00
2022-11-19T03:23:12.857Z,8.83
2022-11-19T03:25:42.580Z,13.00
2022-11-19T03:28:13.867Z,11.03
2022-11-19T03:30:43.074Z,8.77
2022-11-19T03:33:14.344Z,9.90
2022-11-19T03:35:44.483Z,9.07
2022-11-19T03:38:14.503Z,7.77
2022-11-19T03:40:43.113Z,11.70
2022-11-19T03:43:12.767Z,8.87
2022-11-19T03:45:41.310Z,9.57
2022-11-19T03:48:08.875Z,10.40
2022-11-19T03:50:40.331Z,12.57
2022-11-19T03:53:07.777Z,10.53
2022-11-19T03:55:36.945Z,11.23
2022-11-19T03:58:05.156Z,9.47
2022-11-19T04:00:32.642Z,7.97
2022-11-19T04:03:00.261Z,9.30
2022-11-19T04:05:27.787Z,8.47
2022-11-19T04:07:56.805Z,8.47
2022-11-19T04:10:24.482Z,9.53
2022-11-19T04:12:51.918Z,7.77
2022-11-19T04:15:19.632Z,9.23
2022-11-19T04:17:47.244Z,8.43
2022-11-19T04:20:15.187Z,9.77
2022-11-19T04:22:43.084Z,9.37
2022-11-19T04:25:11.984Z,8.60
2022-11-19T04:27:39.513Z,7.53
2022-11-19T04:30:07.636Z,9.17
2022-11-19T04:32:35.307Z,11.73
2022-11-19T04:35:02.810Z,8.37
2022-11-19T04:37:30.283Z,10.50
2022-11-19T04:39:57.782Z,9.90
2022-11-19T04:42:26.742Z,7.40
2022-11-19T04:44:54.435Z,8.90
2022-11-19T04:47:21.862Z,8.10
2022-11-19T04:49:49.275Z,11.97
2022-11-19T04:52:16.698Z,9.63
2022-11-19T04:54:44.163Z,8.13
2022-11-19T04:57:11.713Z,9.50
2022-11-19T04:59:40.705Z,10.47
2022-11-19T05:02:08.181Z,8.90
2022-11-19T05:04:35.760Z,11.83
2022-11-19T05:07:04.289Z,7.87
2022-11-19T05:09:31.827Z,9.23
2022-11-19T05:11:59.260Z,9.73
2022-11-19T05:14:30.363Z,8.67
2022-11-19T05:16:59.508Z,10.90
2022-11-19T05:19:26.939Z,11.17
2022-11-19T05:21:54.351Z,10.73
2022-11-19T05:24:21.812Z,11.67
2022-11-19T05:26:49.250Z,17.40
2022-11-19T05:29:16.902Z,14.37
2022-11-19T05:31:44.620Z,16.10
2022-11-19T05:34:13.436Z,13.63
2022-11-19T05:36:40.935Z,12.27
2022-11-19T05:39:08.521Z,14.10
2022-11-19T05:41:36.111Z,13.50
2022-11-19T05:44:03.632Z,10.43
2022-11-19T05:46:31.107Z,11.60
2022-11-19T05:48:58.693Z,10.93
2022-11-19T05:51:27.603Z,11.97
2022-11-19T05:53:55.098Z,10.93
2022-11-19T05:56:22.640Z,9.70
2022-11-19T05:58:50.071Z,13.23
2022-11-19T06:01:17.790Z,13.27
2022-11-19T06:03:45.211Z,11.33
2022-11-19T06:06:12.687Z,12.97
2022-11-19T06:08:41.565Z,10.33
2022-11-19T06:11:29.129Z,11.57
2022-11-19T06:13:56.622Z,10.13
2022-11-19T06:16:24.171Z,11.07
2022-11-19T06:18:51.676Z,9.10
2022-11-19T06:21:19.079Z,11.10
2022-11-19T06:23:48.258Z,14.17
2022-11-19T06:26:22.499Z,10.43
2022-11-19T06:28:49.951Z,12.10
2022-11-19T06:31:17.563Z,11.17
2022-11-19T06:33:45.107Z,10.77
2022-11-19T06:36:12.720Z,13.20
2022-11-19T06:38:40.219Z,11.50
2022-11-19T06:41:09.015Z,12.67
2022-11-19T06:43:36.440Z,13.60
2022-11-19T06:46:04.010Z,11.03
2022-11-19T06:48:31.617Z,13.67
2022-11-19T06:50:59.060Z,14.57
2022-11-19T06:53:26.567Z,13.13
2022-11-19T06:55:56.487Z,14.67
2022-11-19T06:58:25.518Z,19.50
2022-11-19T07:00:53.131Z,19.77
2022-11-19T07:03:20.814Z,19.97
2022-11-19T07:05:48.325Z,19.00
2022-11-19T07:08:16.294Z,20.83
2022-11-19T07:10:43.980Z,16.73
2022-11-19T07:13:11.547Z,15.63
2022-11-19T07:15:40.330Z,12.53
2022-11-19T07:18:07.817Z,14.63
2022-11-19T07:20:35.376Z,14.23
2022-11-19T07:23:02.876Z,16.50
2022-11-19T07:25:30.309Z,15.50
2022-11-19T07:27:57.779Z,17.53
2022-11-19T07:30:25.225Z,14.67
2022-11-19T07:32:54.492Z,18.33
2022-11-19T07:35:22.013Z,20.73
2022-11-19T07:37:49.492Z,16.73
2022-11-19T07:40:17.394Z,16.97
2022-11-19T07:42:49.866Z,18.20
2022-11-19T07:45:17.887Z,19.07
2022-11-19T07:47:45.348Z,18.27
2022-11-19T07:50:14.669Z,21.23
2022-11-19T07:52:42.238Z,121.80
2022-11-19T07:55:10.186Z,98.60
2022-11-19T07:57:37.681Z,46.47
2022-11-19T08:00:05.832Z,34.37
2022-11-19T08:02:39.990Z,34.00
2022-11-19T08:05:07.708Z,33.77
2022-11-19T08:07:37.715Z,34.83
2022-11-19T08:10:06.925Z,32.73
2022-11-19T08:12:34.455Z,27.67
2022-11-19T08:15:02.158Z,26.07
2022-11-19T08:17:43.562Z,28.77
2022-11-19T08:20:11.964Z,33.80
2022-11-19T08:22:42.037Z,32.57
2022-11-19T08:25:09.673Z,30.30
2022-11-19T08:27:37.349Z,27.43
2022-11-19T08:30:05.098Z,27.73
2022-11-19T08:32:32.574Z,27.83
2022-11-19T08:35:00.024Z,28.07
2022-11-19T08:37:27.530Z,26.57
2022-11-19T08:39:56.387Z,26.13
2022-11-19T08:42:41.534Z,32.97
2022-11-19T08:45:09.685Z,32.67
2022-11-19T08:47:37.203Z,30.20
2022-11-19T08:50:04.927Z,31.87
2022-11-19T08:52:32.416Z,34.57
2022-11-19T08:55:01.195Z,35.70
2022-11-19T08:57:28.864Z,69.60
2022-11-19T08:59:58.227Z,46.27
2022-11-19T09:02:29.901Z,36.00
2022-11-19T09:04:57.570Z,41.10
2022-11-19T09:07:25.044Z,30.63
2022-11-19T09:09:52.982Z,31.70
2022-11-19T09:12:21.807Z,38.67
2022-11-19T09:14:50.450Z,31.57
2022-11-19T09:17:17.872Z,25.93
2022-11-19T09:19:45.420Z,23.17
2022-11-19T09:22:12.850Z,16.77
2022-11-19T09:24:40.287Z,15.13
2022-11-19T09:27:07.713Z,17.20
2022-11-19T09:29:36.533Z,12.67
2022-11-19T09:32:04.009Z,15.07
2022-11-19T09:34:31.466Z,13.43
2022-11-19T09:36:59.244Z,12.07
2022-11-19T09:39:26.647Z,11.77
2022-11-19T09:41:57.422Z,11.83
2022-11-19T09:44:33.253Z,9.33
2022-11-19T09:47:07.802Z,8.23
2022-11-19T09:49:38.291Z,10.83
2022-11-19T09:52:07.480Z,9.47
2022-11-19T09:54:35.277Z,6.47
2022-11-19T09:57:05.610Z,10.80
2022-11-19T09:59:34.612Z,7.07
2022-11-19T10:02:04.980Z,6.23
2022-11-19T10:04:33.336Z,6.27
2022-11-19T10:07:07.703Z,6.03
2022-11-19T10:09:38.771Z,9.93
2022-11-19T10:12:12.780Z,5.57
2022-11-19T10:14:48.343Z,5.13
2022-11-19T10:17:21.891Z,7.77
2022-11-19T10:19:56.848Z,6.30
2022-11-19T10:22:29.289Z,5.20
2022-11-19T10:24:58.942Z,5.63
2022-11-19T10:27:29.060Z,6.00
2022-11-19T10:29:59.283Z,6.20
2022-11-19T10:32:31.398Z,6.17
2022-11-19T10:35:01.416Z,4.07
2022-11-19T10:37:31.678Z,5.10
2022-11-19T10:40:01.402Z,4.57
2022-11-19T10:42:30.785Z,4.50
2022-11-19T10:45:00.255Z,4.13
2022-11-19T10:47:29.692Z,5.57
2022-11-19T10:49:58.439Z,4.67
2022-11-19T10:52:28.034Z,5.53
2022-11-19T10:54:57.609Z,4.87
2022-11-19T10:57:25.644Z,5.23
2022-11-19T10:59:54.464Z,3.83
2022-11-19T11:02:28.026Z,3.80
2022-11-19T11:05:05.128Z,3.90
2022-11-19T11:07:50.788Z,4.57
2022-11-19T11:10:44.074Z,5.13
2022-11-19T11:13:34.381Z,4.10
2022-11-19T11:16:06.284Z,3.63
2022-11-19T11:18:34.067Z,3.70
2022-11-19T11:21:03.020Z,5.10
2022-11-19T11:23:30.889Z,5.90
2022-11-19T11:26:03.275Z,7.03
2022-11-19T11:28:30.717Z,5.57
2022-11-19T11:30:59.072Z,6.07
2022-11-19T11:33:31.744Z,5.77
2022-11-19T11:36:00.855Z,4.73
2022-11-19T11:38:29.956Z,4.77
2022-11-19T11:41:30.336Z,5.83
2022-11-19T11:44:01.266Z,5.73
2022-11-19T11:46:34.836Z,6.13
2022-11-19T11:49:08.333Z,5.63
2022-11-19T11:51:40.164Z,5.07
2022-11-19T11:54:18.435Z,5.90
2022-11-19T11:56:46.390Z,6.67
2022-11-19T11:59:23.884Z,17.70
2022-11-19T12:01:55.056Z,8.93
2022-11-19T12:04:23.234Z,5.80
2022-11-19T12:06:56.730Z,6.93
2022-11-19T12:09:28.361Z,4.60
2022-11-19T12:11:58.535Z,5.67
2022-11-19T12:14:28.060Z,4.47
2022-11-19T12:17:10.413Z,5.33
2022-11-19T12:19:48.729Z,6.20
2022-11-19T12:22:19.377Z,4.70
2022-11-19T12:24:56.807Z,6.87
2022-11-19T12:27:31.356Z,5.07
2022-11-19T12:30:02.507Z,5.30
2022-11-19T12:32:37.012Z,6.80
2022-11-19T12:35:10.768Z,5.90
2022-11-19T12:37:46.098Z,6.07
2022-11-19T12:40:21.393Z,6.53
2022-11-19T12:42:51.845Z,7.13
2022-11-19T12:45:25.963Z,5.77
2022-11-19T12:48:11.110Z,5.20
2022-11-19T12:50:46.548Z,7.07
2022-11-19T12:53:20.841Z,8.90
2022-11-19T12:55:53.152Z,7.33
2022-11-19T12:58:25.621Z,6.27
2022-11-19T13:00:56.617Z,5.17
2022-11-19T13:03:27.639Z,7.77
2022-11-19T13:05:56.251Z,5.87
2022-11-19T13:08:27.943Z,5.40
2022-11-19T13:10:59.603Z,4.80
2022-11-19T13:13:29.015Z,5.03
2022-11-19T13:15:59.831Z,6.13
2022-11-19T13:18:29.123Z,4.97
2022-11-19T13:20:57.729Z,5.47
2022-11-19T13:23:27.271Z,6.17
2022-11-19T13:25:57.705Z,5.80
2022-11-19T13:28:27.790Z,5.30
2022-11-19T13:30:56.147Z,5.33
2022-11-19T13:33:25.950Z,6.17
2022-11-19T13:35:54.920Z,5.17
2022-11-19T13:38:24.604Z,7.33
2022-11-19T13:40:53.054Z,4.77
2022-11-19T13:43:38.596Z,6.20
2022-11-19T13:46:12.211Z,5.77
2022-11-19T13:48:41.668Z,5.17
2022-11-19T13:51:13.147Z,7.13
2022-11-19T13:53:41.758Z,5.57
2022-11-19T13:56:13.877Z,4.30
2022-11-19T13:58:45.245Z,4.20
2022-11-19T14:01:24.897Z,5.20
2022-11-19T14:04:00.844Z,4.57
2022-11-19T14:06:45.029Z,6.17
2022-11-19T14:09:19.611Z,5.10
2022-11-19T14:11:54.091Z,4.07
2022-11-19T14:14:44.301Z,5.93
2022-11-19T14:17:36.406Z,5.93
2022-11-19T14:20:40.535Z,4.90
2022-11-19T14:23:26.456Z,4.77
2022-11-19T14:26:11.358Z,5.00
2022-11-19T14:28:48.203Z,4.23
2022-11-19T14:31:17.922Z,3.93
2022-11-19T14:34:01.222Z,5.73
2022-11-19T14:36:42.480Z,4.60
2022-11-19T14:39:15.530Z,4.43
2022-11-19T14:41:44.437Z,5.80
2022-11-19T14:44:14.306Z,4.53
2022-11-19T14:46:43.568Z,4.30
2022-11-19T14:49:29.284Z,4.33
2022-11-19T14:51:58.509Z,4.37
2022-11-19T14:54:34.017Z,4.60
2022-11-19T14:57:16.568Z,3.90
2022-11-19T14:59:46.956Z,3.93
2022-11-19T15:02:21.092Z,4.80
2022-11-19T15:04:53.045Z,4.63
2022-11-19T15:07:34.650Z,4.63
2022-11-19T15:10:10.714Z,4.10
2022-11-19T15:12:48.952Z,4.33
2022-11-19T15:15:32.144Z,3.93
2022-11-19T15:18:05.910Z,4.37
2022-11-19T15:20:35.999Z,3.03
2022-11-19T15:23:08.083Z,4.07
2022-11-19T15:25:40.524Z,4.70
2022-11-19T15:28:16.139Z,3.87
2022-11-19T15:30:49.703Z,3.63
2022-11-19T15:33:26.890Z,3.03
2022-11-19T15:36:12.409Z,3.83
2022-11-19T15:38:43.266Z,4.07
2022-11-19T15:41:13.952Z,4.03
2022-11-19T15:43:43.241Z,3.50
2022-11-19T15:46:12.287Z,4.43
2022-11-19T15:48:43.629Z,4.13
2022-11-19T15:51:13.501Z,4.93
2022-11-19T15:53:58.046Z,5.13
2022-11-19T15:56:25.534Z,4.97
2022-11-19T15:58:53.515Z,4.93
2022-11-19T16:01:22.047Z,8.57
2022-11-19T16:03:51.322Z,7.77
2022-11-19T16:06:20.736Z,6.50
2022-11-19T16:08:52.394Z,7.03
2022-11-19T16:11:38.476Z,9.23
2022-11-19T16:14:32.846Z,9.43
2022-11-19T16:17:28.257Z,9.47
2022-11-19T16:20:02.649Z,9.23
2022-11-19T16:22:30.237Z,12.60
2022-11-19T16:25:05.087Z,13.43
2022-11-19T16:27:32.729Z,13.70
2022-11-19T16:30:00.246Z,15.90
2022-11-19T16:32:28.292Z,12.73
2022-11-19T16:35:09.334Z,17.13
2022-11-19T16:37:36.936Z,16.40
2022-11-19T16:40:06.987Z,14.13
2022-11-19T16:42:33.715Z,15.93
2022-11-19T16:45:07.153Z,12.57
2022-11-19T16:47:36.689Z,13.03
2022-11-19T16:50:06.257Z,15.53
2022-11-19T16:52:37.548Z,11.20
2022-11-19T16:55:07.852Z,9.67
2022-11-19T16:57:35.483Z,16.63
2022-11-19T17:00:04.296Z,14.57
2022-11-19T17:02:32.879Z,18.10
2022-11-19T17:05:06.291Z,15.13
2022-11-19T17:07:33.957Z,14.77
2022-11-19T17:10:10.354Z,12.13
2022-11-19T17:12:38.249Z,15.43
2022-11-19T17:15:20.616Z,15.00
2022-11-19T17:17:48.252Z,15.10
2022-11-19T17:20:42.885Z,9.97
2022-11-19T17:23:11.903Z,6.87
2022-11-19T17:25:47.507Z,6.30
2022-11-19T17:28:19.025Z,7.03
2022-11-19T17:30:49.116Z,8.07
2022-11-19T17:33:17.852Z,9.53
2022-11-19T17:35:46.061Z,13.60
2022-11-19T17:38:14.213Z,17.13
2022-11-19T17:40:45.354Z,15.60
2022-11-19T17:43:32.292Z,21.50
2022-11-19T17:45:59.768Z,12.17
2022-11-19T17:48:28.083Z,15.47
2022-11-19T17:50:55.604Z,18.27
2022-11-19T17:53:23.382Z,16.20
2022-11-19T17:55:52.541Z,26.00
2022-11-19T17:58:21.408Z,39.23
2022-11-19T18:00:48.997Z,25.13
2022-11-19T18:03:17.639Z,30.63
2022-11-19T18:05:47.770Z,18.00
2022-11-19T18:08:15.419Z,13.20
2022-11-19T18:10:43.799Z,15.13
2022-11-19T18:13:12.020Z,11.47
2022-11-19T18:15:41.275Z,11.80
2022-11-19T18:18:08.826Z,46.77
2022-11-19T18:20:37.332Z,28.97
2022-11-19T18:23:04.881Z,9.50
2022-11-19T18:25:32.423Z,17.73
2022-11-19T18:28:00.041Z,8.10
2022-11-19T18:30:27.745Z,7.57
2022-11-19T18:32:56.620Z,9.67
2022-11-19T18:35:25.671Z,7.93
2022-11-19T18:37:53.163Z,7.87
2022-11-19T18:40:21.128Z,7.73
2022-11-19T18:43:06.080Z,9.37
2022-11-19T18:45:33.559Z,10.73
2022-11-19T18:48:02.390Z,11.20
2022-11-19T18:50:30.512Z,13.73
2022-11-19T18:52:58.082Z,11.80
2022-11-19T18:55:25.563Z,11.87
2022-11-19T18:57:53.088Z,12.57
2022-11-19T19:00:20.678Z,11.33
2022-11-19T19:02:48.256Z,18.07
2022-11-19T19:05:17.443Z,19.57
2022-11-19T19:07:44.938Z,19.73
2022-11-19T19:10:12.502Z,15.87
2022-11-19T19:12:38.951Z,17.83
2022-11-19T19:15:07.208Z,19.33
2022-11-19T19:17:34.713Z,42.17
2022-11-19T19:20:02.323Z,28.20
2022-11-19T19:22:31.170Z,11.10
2022-11-19T19:24:58.732Z,9.13
2022-11-19T19:27:26.172Z,8.73
2022-11-19T19:29:53.721Z,10.00
2022-11-19T19:32:21.129Z,13.97
2022-11-19T19:34:48.869Z,11.57
2022-11-19T19:37:16.316Z,12.20
2022-11-19T19:39:45.235Z,12.97
2022-11-19T19:42:12.774Z,11.77
2022-11-19T19:44:40.218Z,13.97
2022-11-19T19:47:07.707Z,12.33
2022-11-19T19:49:38.888Z,10.23
2022-11-19T19:52:06.692Z,10.63
2022-11-19T19:54:34.124Z,11.97
2022-11-19T19:57:02.896Z,13.33
2022-11-19T19:59:30.479Z,12.77
2022-11-19T20:01:58.119Z,12.77
2022-11-19T20:04:25.838Z,9.80
2022-11-19T20:06:54.391Z,9.60
2022-11-19T20:09:21.864Z,10.20
2022-11-19T20:11:49.405Z,11.43
2022-11-19T20:14:18.598Z,11.03
2022-11-19T20:16:46.186Z,10.23
2022-11-19T20:19:15.042Z,9.50
2022-11-19T20:21:42.665Z,10.60
2022-11-19T20:24:12.980Z,12.80
2022-11-19T20:26:41.933Z,12.47
2022-11-19T20:29:11.404Z,11.13
2022-11-19T20:31:40.677Z,10.73
2022-11-19T20:34:08.203Z,10.77
2022-11-19T20:36:36.216Z,11.13
2022-11-19T20:39:04.855Z,10.20
2022-11-19T20:41:50.320Z,11.87
2022-11-19T20:44:21.801Z,12.23
2022-11-19T20:46:51.671Z,12.37
2022-11-19T20:49:20.076Z,10.03
2022-11-19T20:51:48.048Z,9.50
2022-11-19T20:54:15.591Z,11.73
2022-11-19T20:56:43.100Z,10.93
2022-11-19T20:59:10.739Z,11.47
2022-11-19T21:01:38.479Z,9.37
2022-11-19T21:04:07.780Z,11.87
2022-11-19T21:06:35.783Z,11.23
2022-11-19T21:09:03.203Z,10.40
2022-11-19T21:11:30.743Z,10.07
2022-11-19T21:13:58.188Z,11.87
2022-11-19T21:16:26.240Z,11.53
2022-11-19T21:18:53.819Z,11.77
2022-11-19T21:21:23.942Z,9.33
2022-11-19T21:23:51.795Z,9.43
2022-11-19T21:26:20.472Z,10.50
2022-11-19T21:28:48.964Z,9.73
2022-11-19T21:31:17.622Z,10.43
2022-11-19T21:33:45.828Z,10.90
2022-11-19T21:36:13.431Z,9.80
2022-11-19T21:38:42.494Z,9.93
2022-11-19T21:41:09.998Z,10.47
2022-11-19T21:43:37.597Z,9.50
2022-11-19T21:46:07.584Z,15.77
2022-11-19T21:48:35.028Z,10.30
2022-11-19T21:51:06.336Z,11.73
2022-11-19T21:53:33.795Z,10.13
2022-11-19T21:56:02.773Z,11.47
2022-11-19T21:58:30.255Z,8.80
2022-11-19T22:00:58.216Z,9.00
2022-11-19T22:03:25.818Z,11.63
2022-11-19T22:05:58.841Z,9.33
2022-11-19T22:08:26.272Z,11.37
2022-11-19T22:10:53.707Z,11.30
2022-11-19T22:13:22.450Z,10.13
2022-11-19T22:15:50.636Z,11.10
2022-11-19T22:18:18.174Z,7.67
2022-11-19T22:20:45.601Z,7.90
2022-11-19T22:23:13.010Z,9.37
2022-11-19T22:25:40.483Z,8.87
2022-11-19T22:28:07.952Z,11.60
2022-11-19T22:30:36.721Z,9.10
2022-11-19T22:33:04.146Z,10.20
2022-11-19T22:35:32.019Z,9.60
2022-11-19T22:37:59.619Z,8.03
2022-11-19T22:40:27.046Z,9.03
2022-11-19T22:42:54.567Z,10.27
2022-11-19T22:45:22.111Z,12.07
2022-11-19T22:47:50.887Z,7.77
2022-11-19T22:50:18.396Z,8.00
2022-11-19T22:52:45.844Z,8.63
2022-11-19T22:55:13.264Z,19.43
2022-11-19T22:57:40.681Z,9.97
2022-11-19T23:00:09.275Z,7.43
2022-11-19T23:02:36.764Z,11.33
2022-11-19T23:05:06.036Z,12.10
2022-11-19T23:07:33.954Z,10.80
2022-11-19T23:10:01.463Z,14.00
2022-11-19T23:12:42.843Z,13.33
2022-11-19T23:15:10.692Z,7.70
2022-11-19T23:17:42.388Z,9.10
2022-11-19T23:20:11.788Z,7.40
2022-11-19T23:22:39.198Z,8.40
2022-11-19T23:25:07.246Z,8.20
2022-11-19T23:27:34.674Z,9.53
2022-11-19T23:30:02.124Z,7.57
2022-11-19T23:32:29.603Z,8.70
2022-11-19T23:34:57.039Z,7.47
2022-11-19T23:37:26.022Z,8.50
2022-11-19T23:39:53.804Z,7.17
2022-11-19T23:42:21.378Z,9.00
2022-11-19T23:44:48.802Z,8.17
2022-11-19T23:47:16.329Z,8.30
2022-11-19T23:49:43.758Z,8.10
2022-11-19T23:52:11.182Z,8.80
2022-11-19T23:54:39.960Z,6.37
2022-11-19T23:57:07.702Z,9.63
2022-11-19T23:59:36.186Z,9.53
